createdAt,value
2022-10-07T00:00:51.039Z,7.28
2022-10-07T00:03:19.067Z,9.52
2022-10-07T00:05:46.170Z,6.68
2022-10-07T00:08:12.787Z,5.68
2022-10-07T00:10:40.982Z,6.78
2022-10-07T00:13:09.875Z,11.77
2022-10-07T00:15:36.468Z,7.68
2022-10-07T00:18:03.595Z,8.45
2022-10-07T00:20:30.139Z,8.68
2022-10-07T00:22:56.705Z,6.57
2022-10-07T00:25:23.374Z,9.63
2022-10-07T00:27:50.335Z,10.00
2022-10-07T00:30:17.651Z,8.38
2022-10-07T00:32:44.311Z,10.00
2022-10-07T00:35:10.847Z,7.95
2022-10-07T00:37:43.205Z,8.00
2022-10-07T00:40:12.915Z,9.82
2022-10-07T00:42:40.609Z,8.43
2022-10-07T00:45:15.042Z,7.65
2022-10-07T00:47:45.139Z,7.60
2022-10-07T00:50:24.342Z,11.40
2022-10-07T00:52:58.961Z,8.48
2022-10-07T00:55:29.138Z,7.07
2022-10-07T00:58:01.721Z,7.30
2022-10-07T01:00:28.640Z,9.50
2022-10-07T01:02:59.089Z,8.70
2022-10-07T01:05:25.614Z,9.25
2022-10-07T01:07:54.948Z,6.82
2022-10-07T01:10:31.497Z,9.93
2022-10-07T01:13:36.428Z,6.97
2022-10-07T01:16:03.048Z,8.07
2022-10-07T01:19:12.959Z,8.30
2022-10-07T01:21:58.152Z,8.95
2022-10-07T01:24:49.259Z,7.05
2022-10-07T01:27:18.879Z,6.95
2022-10-07T01:29:56.007Z,7.60
2022-10-07T01:32:32.619Z,8.48
2022-10-07T01:35:01.855Z,7.70
2022-10-07T01:37:35.342Z,7.30
2022-10-07T01:40:07.624Z,9.52
2022-10-07T01:42:34.518Z,9.35
2022-10-07T01:45:01.842Z,12.02
2022-10-07T01:47:28.826Z,8.48
2022-10-07T01:49:55.424Z,11.02
2022-10-07T01:52:53.064Z,13.25
2022-10-07T01:55:53.852Z,13.13
2022-10-07T01:58:37.905Z,11.27
2022-10-07T02:04:01.690Z,10.77
2022-10-07T02:06:59.595Z,9.85
2022-10-07T02:09:43.528Z,12.20
2022-10-07T02:12:10.209Z,16.13
2022-10-07T02:14:46.200Z,12.90
2022-10-07T02:17:20.605Z,11.40
2022-10-07T02:19:53.492Z,12.60
2022-10-07T02:22:23.233Z,12.40
2022-10-07T02:24:55.438Z,12.68
2022-10-07T02:27:28.114Z,12.20
2022-10-07T02:29:59.803Z,14.20
2022-10-07T02:32:27.627Z,12.02
2022-10-07T02:35:00.122Z,10.75
2022-10-07T02:37:31.621Z,16.08
2022-10-07T02:39:58.694Z,15.95
2022-10-07T02:42:38.248Z,12.68
2022-10-07T02:45:28.370Z,12.35
2022-10-07T02:48:01.069Z,12.27
2022-10-07T02:50:35.525Z,14.00
2022-10-07T02:53:03.887Z,10.98
2022-10-07T02:55:31.917Z,10.70
2022-10-07T02:58:03.752Z,13.77
2022-10-07T03:00:33.499Z,11.20
2022-10-07T03:03:02.686Z,12.52
2022-10-07T03:05:29.863Z,9.35
2022-10-07T03:08:00.328Z,10.68
2022-10-07T03:10:27.378Z,11.50
2022-10-07T03:12:53.991Z,10.60
2022-10-07T03:15:20.864Z,10.00
2022-10-07T03:17:50.647Z,10.15
2022-10-07T03:20:17.270Z,8.45
2022-10-07T03:22:44.844Z,10.45
2022-10-07T03:25:12.904Z,8.77
2022-10-07T03:27:40.821Z,10.05
2022-10-07T03:30:10.290Z,9.95
2022-10-07T03:32:38.872Z,9.70
2022-10-07T03:35:05.971Z,8.40
2022-10-07T03:37:32.628Z,11.15
2022-10-07T03:39:59.341Z,8.05
2022-10-07T03:42:25.954Z,10.20
2022-10-07T03:44:52.737Z,7.68
2022-10-07T03:47:21.400Z,10.10
2022-10-07T03:49:48.120Z,7.72
2022-10-07T03:52:14.829Z,8.23
2022-10-07T03:54:41.688Z,11.93
2022-10-07T03:57:28.305Z,7.55
2022-10-07T03:59:54.974Z,9.25
2022-10-07T04:02:23.595Z,11.00
2022-10-07T04:04:53.300Z,9.63
2022-10-07T04:07:22.199Z,9.00
2022-10-07T04:09:48.854Z,9.20
2022-10-07T04:12:15.646Z,8.68
2022-10-07T04:14:42.325Z,8.60
2022-10-07T04:17:09.130Z,11.55
2022-10-07T04:19:35.751Z,9.48
2022-10-07T04:22:08.302Z,10.80
2022-10-07T04:24:35.461Z,12.85
2022-10-07T04:27:04.980Z,9.77
2022-10-07T04:29:38.199Z,11.63
2022-10-07T04:32:05.870Z,8.68
2022-10-07T04:34:32.500Z,11.45
2022-10-07T04:37:01.351Z,9.02
2022-10-07T04:39:49.023Z,13.15
2022-10-07T04:42:33.813Z,9.05
2022-10-07T04:45:00.545Z,9.95
2022-10-07T04:47:27.170Z,8.38
2022-10-07T04:49:54.485Z,10.93
2022-10-07T04:52:21.105Z,10.05
2022-10-07T04:54:47.713Z,10.25
2022-10-07T04:57:14.878Z,8.73
2022-10-07T04:59:42.961Z,10.43
2022-10-07T05:02:10.191Z,8.68
2022-10-07T05:04:37.214Z,9.40
2022-10-07T05:07:04.721Z,10.05
2022-10-07T05:09:31.415Z,10.57
2022-10-07T05:11:58.059Z,10.10
2022-10-07T05:14:24.682Z,10.68
2022-10-07T05:16:51.811Z,9.98
2022-10-07T05:19:18.783Z,10.05
2022-10-07T05:21:45.957Z,10.05
2022-10-07T05:24:12.566Z,10.63
2022-10-07T05:26:39.363Z,11.80
2022-10-07T05:29:06.988Z,9.27
2022-10-07T05:31:33.678Z,16.05
2022-10-07T05:34:00.500Z,10.73
2022-10-07T05:36:27.285Z,10.15
2022-10-07T05:38:58.003Z,9.35
2022-10-07T05:41:25.059Z,11.75
2022-10-07T05:43:51.689Z,11.20
2022-10-07T05:46:23.731Z,10.88
2022-10-07T05:48:52.617Z,10.60
2022-10-07T05:51:20.875Z,10.57
2022-10-07T05:53:47.915Z,11.20
2022-10-07T05:56:22.015Z,10.13
2022-10-07T05:58:50.284Z,12.13
2022-10-07T06:01:19.763Z,18.13
2022-10-07T06:03:51.677Z,11.85
2022-10-07T06:06:19.166Z,10.38
2022-10-07T06:08:46.761Z,12.75
2022-10-07T06:11:34.079Z,11.10
2022-10-07T06:14:00.887Z,12.48
2022-10-07T06:16:27.745Z,11.52
2022-10-07T06:18:55.481Z,12.20
2022-10-07T06:21:27.629Z,13.18
2022-10-07T06:23:55.750Z,16.70
2022-10-07T06:26:23.019Z,15.90
2022-10-07T06:28:50.143Z,14.15
2022-10-07T06:31:25.211Z,15.32
2022-10-07T06:33:51.958Z,18.80
2022-10-07T06:36:18.691Z,20.77
2022-10-07T06:38:49.541Z,19.17
2022-10-07T06:41:16.751Z,19.80
2022-10-07T06:43:43.874Z,18.83
2022-10-07T06:46:15.550Z,20.65
2022-10-07T06:48:43.044Z,23.95
2022-10-07T06:51:13.610Z,20.95
2022-10-07T06:53:40.240Z,22.92
2022-10-07T06:56:06.877Z,22.17
2022-10-07T06:58:33.605Z,21.65
2022-10-07T07:01:01.190Z,7.22
2022-10-07T07:03:28.393Z,8.45
2022-10-07T07:05:55.695Z,8.38
2022-10-07T07:08:27.667Z,8.82
2022-10-07T07:10:54.628Z,12.27
2022-10-07T07:13:21.455Z,20.35
2022-10-07T07:15:59.191Z,22.25
2022-10-07T07:18:26.013Z,20.85
2022-10-07T07:20:52.681Z,19.75
2022-10-07T07:23:19.363Z,25.08
2022-10-07T07:25:46.393Z,23.98
2022-10-07T07:28:15.507Z,24.25
2022-10-07T07:30:42.536Z,21.02
2022-10-07T07:33:09.452Z,23.00
2022-10-07T07:35:41.482Z,20.65
2022-10-07T07:38:08.716Z,23.08
2022-10-07T07:40:39.589Z,22.25
2022-10-07T07:43:07.365Z,23.33
2022-10-07T07:45:37.546Z,20.42
2022-10-07T07:48:04.981Z,19.88
2022-10-07T07:50:31.733Z,21.83
2022-10-07T07:53:00.254Z,23.05
2022-10-07T07:55:26.915Z,21.45
2022-10-07T07:57:53.542Z,21.48
2022-10-07T08:00:20.330Z,24.95
2022-10-07T08:02:47.689Z,24.92
2022-10-07T08:05:14.435Z,22.60
2022-10-07T08:07:41.257Z,25.42
2022-10-07T08:10:08.283Z,26.02
2022-10-07T08:12:34.920Z,24.70
2022-10-07T08:15:01.545Z,25.42
2022-10-07T08:17:28.236Z,21.70
2022-10-07T08:19:55.344Z,26.60
2022-10-07T08:22:22.330Z,23.45
2022-10-07T08:24:49.160Z,23.48
2022-10-07T08:27:15.783Z,23.58
2022-10-07T08:29:42.413Z,20.40
2022-10-07T08:32:09.032Z,21.35
2022-10-07T08:34:36.593Z,18.92
2022-10-07T08:37:03.804Z,17.70
2022-10-07T08:39:31.347Z,20.92
2022-10-07T08:42:20.458Z,17.52
2022-10-07T08:44:49.649Z,16.40
2022-10-07T08:47:39.953Z,18.15
2022-10-07T08:50:26.415Z,19.70
2022-10-07T08:52:59.339Z,17.35
2022-10-07T08:55:35.767Z,19.42
2022-10-07T08:58:40.897Z,18.33
2022-10-07T09:01:49.203Z,21.98
2022-10-07T09:04:24.583Z,18.65
2022-10-07T09:06:58.945Z,17.45
2022-10-07T09:09:30.534Z,13.40
2022-10-07T09:11:58.933Z,13.93
2022-10-07T09:14:33.569Z,13.70
2022-10-07T09:17:15.953Z,18.48
2022-10-07T09:19:47.030Z,17.55
2022-10-07T09:22:19.496Z,18.85
2022-10-07T09:24:52.845Z,19.02
2022-10-07T09:27:23.091Z,19.35
2022-10-07T09:29:51.331Z,16.92
2022-10-07T09:32:19.629Z,18.20
2022-10-07T09:34:46.849Z,17.85
2022-10-07T09:37:19.282Z,21.48
2022-10-07T09:39:48.061Z,17.15
2022-10-07T09:42:43.521Z,17.52
2022-10-07T09:45:25.216Z,18.73
2022-10-07T09:47:53.958Z,16.60
2022-10-07T09:50:42.971Z,19.25
2022-10-07T09:53:24.714Z,16.55
2022-10-07T09:55:54.126Z,18.77
2022-10-07T09:58:30.859Z,18.50
2022-10-07T10:01:01.983Z,19.75
2022-10-07T10:03:31.512Z,17.20
2022-10-07T10:06:01.028Z,16.80
2022-10-07T10:08:30.414Z,16.02
2022-10-07T10:11:00.214Z,18.90
2022-10-07T10:13:31.517Z,18.42
2022-10-07T10:15:59.374Z,18.33
2022-10-07T10:18:31.145Z,18.10
2022-10-07T10:21:14.724Z,14.88
2022-10-07T10:23:46.529Z,16.70
2022-10-07T10:26:32.729Z,16.25
2022-10-07T10:29:31.815Z,19.10
2022-10-07T10:32:01.397Z,15.15
2022-10-07T10:34:46.274Z,16.70
2022-10-07T10:37:20.415Z,17.85
2022-10-07T10:40:24.211Z,15.10
2022-10-07T10:42:55.241Z,15.75
2022-10-07T10:45:50.994Z,15.63
2022-10-07T10:48:20.783Z,15.05
2022-10-07T10:50:56.199Z,14.52
2022-10-07T10:53:43.114Z,16.10
2022-10-07T10:56:21.053Z,15.38
2022-10-07T10:59:11.281Z,16.23
2022-10-07T11:01:41.804Z,14.30
2022-10-07T11:04:27.115Z,14.25
2022-10-07T11:07:12.329Z,17.30
2022-10-07T11:09:43.668Z,15.60
2022-10-07T11:12:41.566Z,19.70
2022-10-07T11:15:21.430Z,16.25
2022-10-07T11:17:50.854Z,15.10
2022-10-07T11:20:27.878Z,16.98
2022-10-07T11:23:00.857Z,13.73
2022-10-07T11:25:38.012Z,14.38
2022-10-07T11:28:16.239Z,13.68
2022-10-07T11:30:54.277Z,13.52
2022-10-07T11:33:37.353Z,16.90
2022-10-07T11:36:12.986Z,13.23
2022-10-07T11:38:40.514Z,12.75
2022-10-07T11:41:14.008Z,13.80
2022-10-07T11:43:53.294Z,12.55
2022-10-07T11:46:32.184Z,15.32
2022-10-07T11:48:59.762Z,14.43
2022-10-07T11:51:41.086Z,14.75
2022-10-07T11:54:16.006Z,17.70
2022-10-07T11:56:53.384Z,17.05
2022-10-07T11:59:44.176Z,17.30
2022-10-07T12:02:28.929Z,18.50
2022-10-07T12:05:02.799Z,16.67
2022-10-07T12:07:35.212Z,16.40
2022-10-07T12:10:04.943Z,16.42
2022-10-07T12:12:44.613Z,16.65
2022-10-07T12:15:35.054Z,16.65
2022-10-07T12:18:04.486Z,18.95
2022-10-07T12:20:35.241Z,18.77
2022-10-07T12:23:17.206Z,15.60
2022-10-07T12:25:48.771Z,16.40
2022-10-07T12:28:22.153Z,16.67
2022-10-07T12:31:06.902Z,15.45
2022-10-07T12:33:43.326Z,17.30
2022-10-07T12:36:18.953Z,17.77
2022-10-07T12:39:00.737Z,21.00
2022-10-07T12:41:38.849Z,17.38
2022-10-07T12:44:19.588Z,16.95
2022-10-07T12:47:07.121Z,18.08
2022-10-07T12:49:36.839Z,17.98
2022-10-07T12:52:34.060Z,15.02
2022-10-07T12:55:07.407Z,16.48
2022-10-07T12:57:36.078Z,18.02
2022-10-07T13:00:08.122Z,16.17
2022-10-07T13:02:47.371Z,14.18
2022-10-07T13:05:32.998Z,16.40
2022-10-07T13:08:06.930Z,16.48
2022-10-07T13:10:50.168Z,15.70
2022-10-07T13:13:24.320Z,15.73
2022-10-07T13:16:02.691Z,16.50
2022-10-07T13:19:08.377Z,17.27
2022-10-07T13:21:43.962Z,16.40
2022-10-07T13:24:17.565Z,16.75
2022-10-07T13:29:28.340Z,18.90
2022-10-07T13:32:14.574Z,17.83
2022-10-07T13:34:42.167Z,12.52
2022-10-07T13:37:33.146Z,14.45
2022-10-07T13:40:35.188Z,15.38
2022-10-07T13:43:07.085Z,17.30
2022-10-07T13:45:45.959Z,14.38
2022-10-07T13:48:17.349Z,14.35
2022-10-07T13:50:44.994Z,16.42
2022-10-07T13:53:28.497Z,17.45
2022-10-07T13:56:26.111Z,16.40
2022-10-07T13:58:55.292Z,16.70
2022-10-07T14:01:28.425Z,16.02
2022-10-07T14:04:25.316Z,14.77
2022-10-07T14:07:00.883Z,16.05
2022-10-07T14:09:45.687Z,15.05
2022-10-07T14:12:36.899Z,17.52
2022-10-07T14:15:24.608Z,15.20
2022-10-07T14:17:55.234Z,14.82
2022-10-07T14:20:33.689Z,13.88
2022-10-07T14:23:22.184Z,13.35
2022-10-07T14:25:48.799Z,13.57
2022-10-07T14:28:25.909Z,14.77
2022-10-07T14:31:29.329Z,18.23
2022-10-07T14:34:34.559Z,14.65
2022-10-07T14:37:21.387Z,18.38
2022-10-07T14:39:50.241Z,17.60
2022-10-07T14:42:35.967Z,15.65
2022-10-07T14:45:05.126Z,16.80
2022-10-07T14:47:31.971Z,14.05
2022-10-07T14:50:01.308Z,14.35
2022-10-07T14:52:47.349Z,13.65
2022-10-07T14:55:22.095Z,16.38
2022-10-07T14:57:48.881Z,15.35
2022-10-07T15:00:28.464Z,16.50
2022-10-07T15:02:56.861Z,15.60
2022-10-07T15:05:23.788Z,11.85
2022-10-07T15:07:51.060Z,13.57
2022-10-07T15:10:20.644Z,14.30
2022-10-07T15:12:48.092Z,14.48
2022-10-07T15:15:15.937Z,11.07
2022-10-07T15:17:43.134Z,13.88
2022-10-07T15:20:12.682Z,16.15
2022-10-07T15:22:40.180Z,16.42
2022-10-07T15:25:08.961Z,14.38
2022-10-07T15:27:35.863Z,15.68
2022-10-07T15:30:02.531Z,17.80
2022-10-07T15:32:30.320Z,14.65
2022-10-07T15:34:58.173Z,16.77
2022-10-07T15:37:27.690Z,13.52
2022-10-07T15:39:55.230Z,13.73
2022-10-07T15:42:24.570Z,13.05
2022-10-07T15:44:52.143Z,15.02
2022-10-07T15:47:18.998Z,13.90
2022-10-07T15:49:45.685Z,14.75
2022-10-07T15:52:12.513Z,13.05
2022-10-07T15:54:39.465Z,15.15
2022-10-07T15:57:06.689Z,15.02
2022-10-07T15:59:33.430Z,14.57
2022-10-07T16:02:00.177Z,14.45
2022-10-07T16:04:27.596Z,15.52
2022-10-07T16:06:54.229Z,11.07
2022-10-07T16:09:22.931Z,11.90
2022-10-07T16:11:49.997Z,12.80
2022-10-07T16:14:16.830Z,12.70
2022-10-07T16:16:43.653Z,11.55
2022-10-07T16:19:11.677Z,13.77
2022-10-07T16:21:41.070Z,14.48
2022-10-07T16:24:13.535Z,12.13
2022-10-07T16:26:40.231Z,12.07
2022-10-07T16:29:26.868Z,12.43
2022-10-07T16:31:58.237Z,12.98
2022-10-07T16:34:26.494Z,14.40
2022-10-07T16:36:53.711Z,13.77
2022-10-07T16:39:21.870Z,14.32
2022-10-07T16:41:51.443Z,12.20
2022-10-07T16:44:18.181Z,10.98
2022-10-07T16:46:45.321Z,14.35
2022-10-07T16:49:14.678Z,15.25
2022-10-07T16:51:41.817Z,14.82
2022-10-07T16:54:15.889Z,12.65
2022-10-07T16:56:48.587Z,12.38
2022-10-07T16:59:23.293Z,12.02
2022-10-07T17:01:52.850Z,12.52
2022-10-07T17:04:19.747Z,14.68
2022-10-07T17:06:46.875Z,13.75
2022-10-07T17:09:14.231Z,17.08
2022-10-07T17:11:41.613Z,16.00
2022-10-07T17:14:16.446Z,14.55
2022-10-07T17:16:50.665Z,14.55
2022-10-07T17:19:22.747Z,12.90
2022-10-07T17:21:50.486Z,12.18
2022-10-07T17:24:18.504Z,13.00
2022-10-07T17:26:45.996Z,14.23
2022-10-07T17:29:16.545Z,14.77
2022-10-07T17:31:43.619Z,14.10
2022-10-07T17:34:11.760Z,15.50
2022-10-07T17:36:39.424Z,16.55
2022-10-07T17:39:06.643Z,19.30
2022-10-07T17:41:35.941Z,13.70
2022-10-07T17:44:05.553Z,14.57
2022-10-07T17:46:33.372Z,14.50
2022-10-07T17:49:02.160Z,16.98
2022-10-07T17:51:31.290Z,14.05
2022-10-07T17:54:02.155Z,15.55
2022-10-07T17:56:31.851Z,15.65
2022-10-07T17:58:58.917Z,16.58
2022-10-07T18:01:28.529Z,23.17
2022-10-07T18:04:00.178Z,16.30
2022-10-07T18:06:29.318Z,15.45
2022-10-07T18:08:56.154Z,16.13
2022-10-07T18:11:46.360Z,15.70
2022-10-07T18:14:31.744Z,15.85
2022-10-07T18:16:58.441Z,14.48
2022-10-07T18:19:26.675Z,16.15
2022-10-07T18:21:56.341Z,15.70
2022-10-07T18:24:23.822Z,13.65
2022-10-07T18:26:50.480Z,13.13
2022-10-07T18:29:18.477Z,18.17
2022-10-07T18:31:45.294Z,18.25
2022-10-07T18:34:12.050Z,20.80
2022-10-07T18:36:38.893Z,23.67
2022-10-07T18:39:11.297Z,25.08
2022-10-07T18:41:38.174Z,20.83
2022-10-07T18:44:05.107Z,18.98
2022-10-07T18:46:31.800Z,14.32
2022-10-07T18:48:58.465Z,16.25
2022-10-07T18:51:25.259Z,16.05
2022-10-07T18:53:51.935Z,17.90
2022-10-07T18:56:22.016Z,20.73
2022-10-07T18:58:51.110Z,24.65
2022-10-07T19:01:23.747Z,24.10
2022-10-07T19:04:01.946Z,24.83
2022-10-07T19:06:30.895Z,24.08
2022-10-07T19:08:59.638Z,27.98
2022-10-07T19:11:27.336Z,30.15
2022-10-07T19:13:56.697Z,31.05
2022-10-07T19:16:35.667Z,27.73
2022-10-07T19:19:05.863Z,29.17
2022-10-07T19:21:34.315Z,27.10
2022-10-07T19:24:02.078Z,28.27
2022-10-07T19:26:31.986Z,30.13
2022-10-07T19:28:58.635Z,29.52
2022-10-07T19:31:29.282Z,24.23
2022-10-07T19:34:01.402Z,23.38
2022-10-07T19:36:29.150Z,19.70
2022-10-07T19:38:58.679Z,20.05
2022-10-07T19:41:27.568Z,18.92
2022-10-07T19:43:55.674Z,22.95
2022-10-07T19:46:25.269Z,30.25
2022-10-07T19:48:58.306Z,36.33
2022-10-07T19:51:27.227Z,31.60
2022-10-07T19:53:54.101Z,32.15
2022-10-07T19:56:23.827Z,26.70
2022-10-07T19:58:53.534Z,25.80
2022-10-07T20:01:26.172Z,21.77
2022-10-07T20:04:22.041Z,21.05
2022-10-07T20:06:48.738Z,22.75
2022-10-07T20:09:17.628Z,23.73
2022-10-07T20:11:44.677Z,23.02
2022-10-07T20:14:11.396Z,23.25
2022-10-07T20:16:39.179Z,25.30
2022-10-07T20:19:15.501Z,25.35
2022-10-07T20:21:42.410Z,26.48
2022-10-07T20:24:10.027Z,42.75
2022-10-07T20:26:38.516Z,28.85
2022-10-07T20:29:07.517Z,27.15
2022-10-07T20:31:36.611Z,25.77
2022-10-07T20:34:03.728Z,26.88
2022-10-07T20:36:33.444Z,27.20
2022-10-07T20:39:34.111Z,26.75
2022-10-07T20:42:20.008Z,26.00
2022-10-07T20:44:50.343Z,26.45
2022-10-07T20:47:18.184Z,26.77
2022-10-07T20:49:45.164Z,32.72
2022-10-07T20:52:16.995Z,28.42
2022-10-07T20:54:44.892Z,23.42
2022-10-07T20:57:13.326Z,22.80
2022-10-07T20:59:40.050Z,25.77
2022-10-07T21:02:09.444Z,24.80
2022-10-07T21:04:36.734Z,24.33
2022-10-07T21:07:03.457Z,24.38
2022-10-07T21:09:36.176Z,22.10
2022-10-07T21:12:08.595Z,24.10
2022-10-07T21:14:35.706Z,23.42
2022-10-07T21:17:03.776Z,25.35
2022-10-07T21:19:35.723Z,24.33
2022-10-07T21:22:04.770Z,24.42
2022-10-07T21:24:34.412Z,25.00
2022-10-07T21:27:06.595Z,20.27
2022-10-07T21:29:36.386Z,24.15
2022-10-07T21:32:06.491Z,19.63
2022-10-07T21:34:33.105Z,20.50
2022-10-07T21:36:59.725Z,18.67
2022-10-07T21:39:26.646Z,28.00
2022-10-07T21:41:53.455Z,25.02
2022-10-07T21:44:20.470Z,27.35
2022-10-07T21:46:47.213Z,27.05
2022-10-07T21:49:15.437Z,29.38
2022-10-07T21:51:42.785Z,23.20
2022-10-07T21:54:13.787Z,24.13
2022-10-07T21:56:40.487Z,24.27
2022-10-07T21:59:07.100Z,20.63
2022-10-07T22:01:33.909Z,21.92
2022-10-07T22:04:02.473Z,22.15
2022-10-07T22:06:50.257Z,21.30
2022-10-07T22:09:20.159Z,20.23
2022-10-07T22:11:47.203Z,21.50
2022-10-07T22:14:13.975Z,18.63
2022-10-07T22:16:40.691Z,20.38
2022-10-07T22:19:07.548Z,24.05
2022-10-07T22:21:35.856Z,27.95
2022-10-07T22:24:05.179Z,32.63
2022-10-07T22:26:34.380Z,28.27
2022-10-07T22:29:01.002Z,29.50
2022-10-07T22:31:27.673Z,31.10
2022-10-07T22:33:58.777Z,31.10
2022-10-07T22:36:26.554Z,27.13
2022-10-07T22:38:55.706Z,25.60
2022-10-07T22:41:26.361Z,21.98
2022-10-07T22:43:53.665Z,21.35
2022-10-07T22:46:27.180Z,20.88
2022-10-07T22:51:21.485Z,18.48
2022-10-07T22:53:54.691Z,20.58
2022-10-07T22:56:22.585Z,22.52
2022-10-07T22:59:00.347Z,18.73
2022-10-07T23:01:32.031Z,22.13
2022-10-07T23:04:00.894Z,19.55
2022-10-07T23:06:27.894Z,17.70
2022-10-07T23:08:55.109Z,15.25
2022-10-07T23:11:23.801Z,17.50
2022-10-07T23:13:55.539Z,15.65
2022-10-07T23:16:25.179Z,19.80
2022-10-07T23:18:53.599Z,16.30
2022-10-07T23:21:25.441Z,15.85
2022-10-07T23:23:54.943Z,15.20
2022-10-07T23:26:27.476Z,14.18
2022-10-07T23:28:56.534Z,15.68
2022-10-07T23:31:27.187Z,14.20
2022-10-07T23:33:55.542Z,14.32
2022-10-07T23:36:23.005Z,16.95
2022-10-07T23:38:50.572Z,14.15
2022-10-07T23:41:20.280Z,15.35
2022-10-07T23:43:51.362Z,13.77
2022-10-07T23:46:19.983Z,14.75
2022-10-07T23:48:47.219Z,16.73
2022-10-07T23:51:16.801Z,13.40
2022-10-07T23:53:43.441Z,13.80
2022-10-07T23:56:10.214Z,14.13
2022-10-07T23:58:37.220Z,15.10
